KCHK/CHK METAR and TAF weather

Enter ICAO airport designator
Station Type Date Time Source
KCHK METAR 2018/12/10 17:55 UTC NOAA

KCHK 101755Z AUTO 35005KT 10SM CLR 07/M02 A3033 RMK AO2 T00651017 10066 21057


Station Type Date Time Source
KCHK Decoded METAR 2018/12/10 17:55 UTC NOAA

Chickasha, Chickasha Municipal Airport, OK, United States (KCHK) 35-05-46N 097-57-58W
Dec 10, 2018 - 12:55 PM EST / 2018.12.10 1755 UTC
Wind: from the N (350 degrees) at 6 MPH (5 KT):0
Visibility: 10 mile(s):0
Sky conditions: clear
Temperature: 43.7 F (6.5 C)
Dew Point: 28.9 F (-1.7 C)
Relative Humidity: 55%
Pressure (altimeter): 30.33 in. Hg (1027 hPa)
ob: KCHK 101755Z AUTO 35005KT 10SM CLR 07/M02 A3033 RMK AO2 T00651017 10066 21057
cycle: 18

Station Type Date Time Source
KCHK TAF UTC NOAA

Error!


Example: see airport list